sensor_id;sensor_type;location;lat;lon;timestamp;P1;durP1;ratioP1;P2;durP2;ratioP2
70106;SDS011;57473;37.508;15.080;2023-07-13T00:02:08;11.13;;;6.20;;
70106;SDS011;57473;37.508;15.080;2023-07-13T00:04:36;8.40;;;5.97;;
70106;SDS011;57473;37.508;15.080;2023-07-13T00:07:03;11.52;;;6.22;;
70106;SDS011;57473;37.508;15.080;2023-07-13T00:09:30;13.45;;;6.55;;
70106;SDS011;57473;37.508;15.080;2023-07-13T00:11:58;9.30;;;6.35;;
70106;SDS011;57473;37.508;15.080;2023-07-13T00:14:26;8.82;;;6.47;;
70106;SDS011;57473;37.508;15.080;2023-07-13T00:16:54;13.32;;;6.60;;
70106;SDS011;57473;37.508;15.080;2023-07-13T00:19:22;12.48;;;6.75;;
70106;SDS011;57473;37.508;15.080;2023-07-13T00:21:49;9.32;;;6.10;;
70106;SDS011;57473;37.508;15.080;2023-07-13T00:24:17;8.50;;;6.00;;
70106;SDS011;57473;37.508;15.080;2023-07-13T00:26:50;9.57;;;6.22;;
70106;SDS011;57473;37.508;15.080;2023-07-13T00:29:18;8.85;;;6.55;;
70106;SDS011;57473;37.508;15.080;2023-07-13T00:31:47;12.48;;;6.03;;
70106;SDS011;57473;37.508;15.080;2023-07-13T00:34:15;11.40;;;6.88;;
70106;SDS011;57473;37.508;15.080;2023-07-13T00:36:43;11.65;;;6.82;;
70106;SDS011;57473;37.508;15.080;2023-07-13T00:39:10;13.20;;;6.78;;
70106;SDS011;57473;37.508;15.080;2023-07-13T00:41:37;8.77;;;6.50;;
70106;SDS011;57473;37.508;15.080;2023-07-13T00:44:05;9.68;;;6.40;;
70106;SDS011;57473;37.508;15.080;2023-07-13T00:46:34;9.60;;;6.30;;
70106;SDS011;57473;37.508;15.080;2023-07-13T00:49:05;10.50;;;6.35;;
70106;SDS011;57473;37.508;15.080;2023-07-13T00:51:41;11.00;;;6.60;;
70106;SDS011;57473;37.508;15.080;2023-07-13T00:54:19;11.10;;;6.40;;
70106;SDS011;57473;37.508;15.080;2023-07-13T00:56:51;9.35;;;6.82;;
70106;SDS011;57473;37.508;15.080;2023-07-13T00:59:22;11.85;;;6.70;;
70106;SDS011;57473;37.508;15.080;2023-07-13T01:01:50;9.10;;;6.45;;
70106;SDS011;57473;37.508;15.080;2023-07-13T01:04:18;10.05;;;7.13;;
70106;SDS011;57473;37.508;15.080;2023-07-13T01:06:46;10.25;;;7.32;;
70106;SDS011;57473;37.508;15.080;2023-07-13T01:09:14;12.27;;;7.10;;
70106;SDS011;57473;37.508;15.080;2023-07-13T01:11:42;12.38;;;7.32;;
70106;SDS011;57473;37.508;15.080;2023-07-13T01:14:11;10.15;;;7.03;;
70106;SDS011;57473;37.508;15.080;2023-07-13T01:16:42;14.80;;;7.57;;
70106;SDS011;57473;37.508;15.080;2023-07-13T01:19:30;10.10;;;7.18;;
70106;SDS011;57473;37.508;15.080;2023-07-13T01:22:09;14.52;;;8.10;;
70106;SDS011;57473;37.508;15.080;2023-07-13T01:24:40;12.65;;;8.52;;
70106;SDS011;57473;37.508;15.080;2023-07-13T01:27:10;15.32;;;8.07;;
70106;SDS011;57473;37.508;15.080;2023-07-13T01:29:40;15.77;;;8.98;;
70106;SDS011;57473;37.508;15.080;2023-07-13T01:32:10;11.50;;;8.77;;
70106;SDS011;57473;37.508;15.080;2023-07-13T01:34:39;12.70;;;8.63;;
70106;SDS011;57473;37.508;15.080;2023-07-13T01:37:11;13.52;;;9.18;;
70106;SDS011;57473;37.508;15.080;2023-07-13T01:39:38;12.57;;;9.30;;
70106;SDS011;57473;37.508;15.080;2023-07-13T01:42:06;12.82;;;9.45;;
70106;SDS011;57473;37.508;15.080;2023-07-13T01:44:33;16.20;;;10.48;;
70106;SDS011;57473;37.508;15.080;2023-07-13T01:47:00;12.13;;;8.85;;
70106;SDS011;57473;37.508;15.080;2023-07-13T01:49:28;13.27;;;9.18;;
70106;SDS011;57473;37.508;15.080;2023-07-13T01:51:56;13.95;;;9.23;;
70106;SDS011;57473;37.508;15.080;2023-07-13T01:54:23;14.80;;;9.57;;
70106;SDS011;57473;37.508;15.080;2023-07-13T01:56:51;15.35;;;9.75;;
70106;SDS011;57473;37.508;15.080;2023-07-13T01:59:18;13.45;;;9.48;;
70106;SDS011;57473;37.508;15.080;2023-07-13T02:01:45;13.52;;;9.23;;
70106;SDS011;57473;37.508;15.080;2023-07-13T02:04:13;11.27;;;9.43;;
70106;SDS011;57473;37.508;15.080;2023-07-13T02:06:41;14.48;;;9.82;;
70106;SDS011;57473;37.508;15.080;2023-07-13T02:09:08;14.48;;;9.32;;
70106;SDS011;57473;37.508;15.080;2023-07-13T02:11:35;15.95;;;10.02;;
70106;SDS011;57473;37.508;15.080;2023-07-13T02:14:03;12.07;;;8.93;;
70106;SDS011;57473;37.508;15.080;2023-07-13T02:16:30;13.63;;;9.60;;
70106;SDS011;57473;37.508;15.080;2023-07-13T02:18:58;13.02;;;9.50;;
70106;SDS011;57473;37.508;15.080;2023-07-13T02:21:27;13.23;;;9.98;;
70106;SDS011;57473;37.508;15.080;2023-07-13T02:23:54;16.17;;;9.32;;
70106;SDS011;57473;37.508;15.080;2023-07-13T02:26:21;15.18;;;9.90;;
70106;SDS011;57473;37.508;15.080;2023-07-13T02:28:49;13.32;;;9.88;;
70106;SDS011;57473;37.508;15.080;2023-07-13T02:31:19;19.38;;;8.77;;
70106;SDS011;57473;37.508;15.080;2023-07-13T02:33:46;13.32;;;9.10;;
70106;SDS011;57473;37.508;15.080;2023-07-13T02:36:14;11.85;;;8.77;;
70106;SDS011;57473;37.508;15.080;2023-07-13T02:38:44;12.82;;;8.73;;
70106;SDS011;57473;37.508;15.080;2023-07-13T02:41:11;11.73;;;8.63;;
70106;SDS011;57473;37.508;15.080;2023-07-13T02:43:39;12.80;;;9.07;;
70106;SDS011;57473;37.508;15.080;2023-07-13T02:46:08;14.40;;;9.75;;
70106;SDS011;57473;37.508;15.080;2023-07-13T02:48:36;15.73;;;10.05;;
70106;SDS011;57473;37.508;15.080;2023-07-13T02:51:05;14.65;;;8.85;;
70106;SDS011;57473;37.508;15.080;2023-07-13T02:53:34;12.60;;;9.55;;
70106;SDS011;57473;37.508;15.080;2023-07-13T02:56:04;18.30;;;9.65;;
70106;SDS011;57473;37.508;15.080;2023-07-13T02:58:32;13.18;;;8.43;;
70106;SDS011;57473;37.508;15.080;2023-07-13T03:01:05;14.20;;;9.20;;
70106;SDS011;57473;37.508;15.080;2023-07-13T03:03:38;13.20;;;8.73;;
70106;SDS011;57473;37.508;15.080;2023-07-13T03:06:05;11.75;;;8.27;;
70106;SDS011;57473;37.508;15.080;2023-07-13T03:08:44;15.95;;;8.15;;
70106;SDS011;57473;37.508;15.080;2023-07-13T03:11:13;14.35;;;8.02;;
70106;SDS011;57473;37.508;15.080;2023-07-13T03:16:11;9.57;;;7.10;;
70106;SDS011;57473;37.508;15.080;2023-07-13T03:18:45;13.35;;;8.75;;
70106;SDS011;57473;37.508;15.080;2023-07-13T03:21:13;11.68;;;8.15;;
70106;SDS011;57473;37.508;15.080;2023-07-13T03:23:41;11.07;;;7.65;;
70106;SDS011;57473;37.508;15.080;2023-07-13T03:26:11;14.90;;;9.70;;
70106;SDS011;57473;37.508;15.080;2023-07-13T03:28:42;13.20;;;8.05;;
70106;SDS011;57473;37.508;15.080;2023-07-13T03:31:15;13.07;;;9.07;;
70106;SDS011;57473;37.508;15.080;2023-07-13T03:33:45;11.40;;;8.07;;
70106;SDS011;57473;37.508;15.080;2023-07-13T03:36:14;10.35;;;7.72;;
70106;SDS011;57473;37.508;15.080;2023-07-13T03:38:48;11.05;;;8.02;;
70106;SDS011;57473;37.508;15.080;2023-07-13T03:41:24;13.65;;;8.75;;
70106;SDS011;57473;37.508;15.080;2023-07-13T03:43:53;14.15;;;8.10;;
70106;SDS011;57473;37.508;15.080;2023-07-13T03:46:23;12.13;;;8.00;;
70106;SDS011;57473;37.508;15.080;2023-07-13T03:48:51;14.60;;;8.43;;
70106;SDS011;57473;37.508;15.080;2023-07-13T03:51:18;11.75;;;8.15;;
70106;SDS011;57473;37.508;15.080;2023-07-13T03:53:46;12.25;;;7.65;;
70106;SDS011;57473;37.508;15.080;2023-07-13T03:56:17;10.85;;;8.20;;
70106;SDS011;57473;37.508;15.080;2023-07-13T03:58:46;13.65;;;8.05;;
70106;SDS011;57473;37.508;15.080;2023-07-13T04:01:18;12.20;;;7.63;;
70106;SDS011;57473;37.508;15.080;2023-07-13T04:03:47;11.57;;;7.60;;
70106;SDS011;57473;37.508;15.080;2023-07-13T04:06:19;11.75;;;7.40;;
70106;SDS011;57473;37.508;15.080;2023-07-13T04:08:53;12.02;;;7.70;;
70106;SDS011;57473;37.508;15.080;2023-07-13T04:11:23;11.85;;;8.10;;
70106;SDS011;57473;37.508;15.080;2023-07-13T04:13:52;12.00;;;7.85;;
70106;SDS011;57473;37.508;15.080;2023-07-13T04:16:19;10.90;;;7.30;;
70106;SDS011;57473;37.508;15.080;2023-07-13T04:18:47;10.80;;;7.80;;
70106;SDS011;57473;37.508;15.080;2023-07-13T04:21:16;16.08;;;7.97;;
70106;SDS011;57473;37.508;15.080;2023-07-13T04:23:43;13.63;;;8.27;;
70106;SDS011;57473;37.508;15.080;2023-07-13T04:26:11;12.68;;;8.20;;
70106;SDS011;57473;37.508;15.080;2023-07-13T04:28:39;11.95;;;7.63;;
70106;SDS011;57473;37.508;15.080;2023-07-13T04:31:06;14.88;;;7.88;;
70106;SDS011;57473;37.508;15.080;2023-07-13T04:33:33;14.77;;;8.50;;
70106;SDS011;57473;37.508;15.080;2023-07-13T04:36:00;11.65;;;7.55;;
70106;SDS011;57473;37.508;15.080;2023-07-13T04:38:29;16.40;;;9.60;;
70106;SDS011;57473;37.508;15.080;2023-07-13T04:41:00;11.95;;;8.52;;
70106;SDS011;57473;37.508;15.080;2023-07-13T04:43:29;12.75;;;9.05;;
70106;SDS011;57473;37.508;15.080;2023-07-13T04:45:57;16.70;;;9.43;;
70106;SDS011;57473;37.508;15.080;2023-07-13T04:48:33;14.15;;;9.43;;
70106;SDS011;57473;37.508;15.080;2023-07-13T04:51:01;14.70;;;9.40;;
70106;SDS011;57473;37.508;15.080;2023-07-13T04:53:29;17.58;;;10.05;;
70106;SDS011;57473;37.508;15.080;2023-07-13T04:55:57;20.25;;;9.75;;
70106;SDS011;57473;37.508;15.080;2023-07-13T04:58:25;15.85;;;9.55;;
70106;SDS011;57473;37.508;15.080;2023-07-13T05:00:52;16.50;;;10.52;;
70106;SDS011;57473;37.508;15.080;2023-07-13T05:03:25;14.70;;;8.85;;
70106;SDS011;57473;37.508;15.080;2023-07-13T05:06:14;20.90;;;12.98;;
70106;SDS011;57473;37.508;15.080;2023-07-13T05:08:40;15.70;;;8.52;;
70106;SDS011;57473;37.508;15.080;2023-07-13T05:11:08;18.73;;;9.82;;
70106;SDS011;57473;37.508;15.080;2023-07-13T05:13:35;15.30;;;9.18;;
70106;SDS011;57473;37.508;15.080;2023-07-13T05:16:03;21.17;;;9.73;;
70106;SDS011;57473;37.508;15.080;2023-07-13T05:18:35;21.30;;;10.20;;
70106;SDS011;57473;37.508;15.080;2023-07-13T05:21:08;17.05;;;9.30;;
70106;SDS011;57473;37.508;15.080;2023-07-13T05:23:37;18.02;;;9.68;;
70106;SDS011;57473;37.508;15.080;2023-07-13T05:26:05;26.52;;;11.40;;
70106;SDS011;57473;37.508;15.080;2023-07-13T05:28:35;27.40;;;11.95;;
70106;SDS011;57473;37.508;15.080;2023-07-13T05:31:03;21.08;;;11.50;;
70106;SDS011;57473;37.508;15.080;2023-07-13T05:33:32;20.35;;;11.10;;
70106;SDS011;57473;37.508;15.080;2023-07-13T05:36:00;25.23;;;12.68;;
70106;SDS011;57473;37.508;15.080;2023-07-13T05:38:27;21.38;;;11.40;;
70106;SDS011;57473;37.508;15.080;2023-07-13T05:40:55;20.35;;;11.00;;
70106;SDS011;57473;37.508;15.080;2023-07-13T05:43:24;23.88;;;10.90;;
70106;SDS011;57473;37.508;15.080;2023-07-13T05:45:55;16.98;;;10.07;;
70106;SDS011;57473;37.508;15.080;2023-07-13T05:48:23;17.75;;;9.45;;
70106;SDS011;57473;37.508;15.080;2023-07-13T05:50:50;20.65;;;8.80;;
70106;SDS011;57473;37.508;15.080;2023-07-13T05:53:18;13.95;;;9.35;;
70106;SDS011;57473;37.508;15.080;2023-07-13T05:55:45;19.02;;;9.40;;
70106;SDS011;57473;37.508;15.080;2023-07-13T05:58:14;18.98;;;9.00;;
70106;SDS011;57473;37.508;15.080;2023-07-13T06:00:42;14.32;;;8.60;;
70106;SDS011;57473;37.508;15.080;2023-07-13T06:03:10;17.83;;;9.05;;
70106;SDS011;57473;37.508;15.080;2023-07-13T06:05:37;20.42;;;9.10;;
70106;SDS011;57473;37.508;15.080;2023-07-13T06:08:06;20.85;;;10.32;;
70106;SDS011;57473;37.508;15.080;2023-07-13T06:10:34;24.48;;;10.15;;
70106;SDS011;57473;37.508;15.080;2023-07-13T06:13:03;26.95;;;10.10;;
70106;SDS011;57473;37.508;15.080;2023-07-13T06:15:30;24.60;;;9.80;;
70106;SDS011;57473;37.508;15.080;2023-07-13T06:17:57;20.00;;;9.55;;
70106;SDS011;57473;37.508;15.080;2023-07-13T06:20:25;23.13;;;9.60;;
70106;SDS011;57473;37.508;15.080;2023-07-13T06:22:52;16.77;;;9.07;;
70106;SDS011;57473;37.508;15.080;2023-07-13T06:25:19;19.70;;;9.23;;
70106;SDS011;57473;37.508;15.080;2023-07-13T06:27:47;17.92;;;9.57;;
70106;SDS011;57473;37.508;15.080;2023-07-13T06:30:14;20.58;;;9.40;;
70106;SDS011;57473;37.508;15.080;2023-07-13T06:32:42;15.30;;;9.10;;
70106;SDS011;57473;37.508;15.080;2023-07-13T06:35:09;20.35;;;9.75;;
70106;SDS011;57473;37.508;15.080;2023-07-13T06:37:39;22.08;;;9.65;;
70106;SDS011;57473;37.508;15.080;2023-07-13T06:40:06;19.90;;;9.50;;
70106;SDS011;57473;37.508;15.080;2023-07-13T06:42:46;15.90;;;9.65;;
70106;SDS011;57473;37.508;15.080;2023-07-13T06:45:17;13.73;;;8.63;;
70106;SDS011;57473;37.508;15.080;2023-07-13T06:47:44;18.42;;;9.05;;
70106;SDS011;57473;37.508;15.080;2023-07-13T06:50:12;21.55;;;9.30;;
70106;SDS011;57473;37.508;15.080;2023-07-13T06:52:45;15.30;;;8.77;;
70106;SDS011;57473;37.508;15.080;2023-07-13T06:55:52;15.02;;;8.10;;
70106;SDS011;57473;37.508;15.080;2023-07-13T06:58:24;14.25;;;8.70;;
70106;SDS011;57473;37.508;15.080;2023-07-13T07:00:55;15.13;;;8.60;;
70106;SDS011;57473;37.508;15.080;2023-07-13T07:03:22;22.25;;;10.10;;
70106;SDS011;57473;37.508;15.080;2023-07-13T07:05:50;13.73;;;8.15;;
70106;SDS011;57473;37.508;15.080;2023-07-13T07:08:23;19.48;;;6.97;;
70106;SDS011;57473;37.508;15.080;2023-07-13T07:10:53;13.02;;;6.70;;
70106;SDS011;57473;37.508;15.080;2023-07-13T07:13:59;10.57;;;5.68;;
70106;SDS011;57473;37.508;15.080;2023-07-13T07:16:26;13.25;;;5.68;;
70106;SDS011;57473;37.508;15.080;2023-07-13T07:18:57;12.10;;;5.93;;
70106;SDS011;57473;37.508;15.080;2023-07-13T07:21:35;13.02;;;5.65;;
70106;SDS011;57473;37.508;15.080;2023-07-13T07:24:12;12.10;;;6.70;;
70106;SDS011;57473;37.508;15.080;2023-07-13T07:26:44;14.95;;;5.40;;
70106;SDS011;57473;37.508;15.080;2023-07-13T07:29:14;14.20;;;6.07;;
70106;SDS011;57473;37.508;15.080;2023-07-13T07:31:50;15.48;;;6.70;;
70106;SDS011;57473;37.508;15.080;2023-07-13T07:34:32;11.65;;;5.78;;
70106;SDS011;57473;37.508;15.080;2023-07-13T07:37:00;9.40;;;5.55;;
70106;SDS011;57473;37.508;15.080;2023-07-13T07:39:33;11.63;;;6.10;;
70106;SDS011;57473;37.508;15.080;2023-07-13T07:42:32;13.88;;;6.30;;
70106;SDS011;57473;37.508;15.080;2023-07-13T07:45:03;12.25;;;6.20;;
70106;SDS011;57473;37.508;15.080;2023-07-13T07:47:33;9.18;;;6.65;;
70106;SDS011;57473;37.508;15.080;2023-07-13T07:50:03;17.98;;;8.40;;
70106;SDS011;57473;37.508;15.080;2023-07-13T07:52:32;11.20;;;6.82;;
70106;SDS011;57473;37.508;15.080;2023-07-13T07:55:15;14.50;;;7.10;;
70106;SDS011;57473;37.508;15.080;2023-07-13T07:57:48;10.82;;;6.80;;
70106;SDS011;57473;37.508;15.080;2023-07-13T08:00:18;10.90;;;7.30;;
70106;SDS011;57473;37.508;15.080;2023-07-13T08:02:52;12.93;;;7.63;;
70106;SDS011;57473;37.508;15.080;2023-07-13T08:05:39;12.35;;;6.72;;
70106;SDS011;57473;37.508;15.080;2023-07-13T08:08:28;10.57;;;7.03;;
70106;SDS011;57473;37.508;15.080;2023-07-13T08:10:55;12.82;;;7.82;;
70106;SDS011;57473;37.508;15.080;2023-07-13T08:13:43;14.23;;;8.27;;
70106;SDS011;57473;37.508;15.080;2023-07-13T08:16:10;15.02;;;8.70;;
70106;SDS011;57473;37.508;15.080;2023-07-13T08:18:38;16.80;;;8.05;;
70106;SDS011;57473;37.508;15.080;2023-07-13T08:21:06;17.23;;;7.72;;
70106;SDS011;57473;37.508;15.080;2023-07-13T08:23:35;16.27;;;7.22;;
70106;SDS011;57473;37.508;15.080;2023-07-13T08:26:03;69.38;;;19.33;;
70106;SDS011;57473;37.508;15.080;2023-07-13T08:28:31;23.98;;;12.43;;
70106;SDS011;57473;37.508;15.080;2023-07-13T08:31:03;43.53;;;19.30;;
70106;SDS011;57473;37.508;15.080;2023-07-13T08:33:31;17.15;;;9.38;;
70106;SDS011;57473;37.508;15.080;2023-07-13T08:35:58;17.05;;;9.15;;
70106;SDS011;57473;37.508;15.080;2023-07-13T08:38:26;12.07;;;7.70;;
70106;SDS011;57473;37.508;15.080;2023-07-13T08:40:54;20.23;;;8.43;;
70106;SDS011;57473;37.508;15.080;2023-07-13T08:43:27;22.95;;;13.68;;
70106;SDS011;57473;37.508;15.080;2023-07-13T08:46:02;15.27;;;8.63;;
70106;SDS011;57473;37.508;15.080;2023-07-13T08:54:31;18.95;;;11.93;;
70106;SDS011;57473;37.508;15.080;2023-07-13T08:57:14;15.63;;;10.23;;
70106;SDS011;57473;37.508;15.080;2023-07-13T08:59:43;15.90;;;7.47;;
70106;SDS011;57473;37.508;15.080;2023-07-13T09:05:13;10.40;;;6.93;;
70106;SDS011;57473;37.508;15.080;2023-07-13T09:10:30;13.40;;;9.40;;
70106;SDS011;57473;37.508;15.080;2023-07-13T09:16:00;20.63;;;9.98;;
70106;SDS011;57473;37.508;15.080;2023-07-13T09:18:36;23.20;;;13.30;;
70106;SDS011;57473;37.508;15.080;2023-07-13T09:21:30;15.27;;;8.23;;
70106;SDS011;57473;37.508;15.080;2023-07-13T09:24:03;13.13;;;7.95;;
70106;SDS011;57473;37.508;15.080;2023-07-13T09:26:55;12.10;;;8.02;;
70106;SDS011;57473;37.508;15.080;2023-07-13T09:29:27;12.68;;;7.47;;
70106;SDS011;57473;37.508;15.080;2023-07-13T09:31:57;12.52;;;7.47;;
70106;SDS011;57473;37.508;15.080;2023-07-13T09:34:28;13.57;;;7.38;;
70106;SDS011;57473;37.508;15.080;2023-07-13T09:36:57;8.52;;;6.70;;
70106;SDS011;57473;37.508;15.080;2023-07-13T09:39:35;11.65;;;6.35;;
70106;SDS011;57473;37.508;15.080;2023-07-13T09:47:23;9.82;;;7.20;;
70106;SDS011;57473;37.508;15.080;2023-07-13T09:52:38;14.77;;;6.90;;
70106;SDS011;57473;37.508;15.080;2023-07-13T09:57:59;11.48;;;7.07;;
70106;SDS011;57473;37.508;15.080;2023-07-13T10:00:32;11.60;;;7.28;;
70106;SDS011;57473;37.508;15.080;2023-07-13T10:03:00;10.35;;;7.25;;
70106;SDS011;57473;37.508;15.080;2023-07-13T10:05:37;10.90;;;6.70;;
70106;SDS011;57473;37.508;15.080;2023-07-13T10:08:14;20.27;;;8.45;;
70106;SDS011;57473;37.508;15.080;2023-07-13T10:13:42;17.35;;;9.07;;
70106;SDS011;57473;37.508;15.080;2023-07-13T10:16:30;15.65;;;7.22;;
70106;SDS011;57473;37.508;15.080;2023-07-13T10:19:04;11.82;;;6.40;;
70106;SDS011;57473;37.508;15.080;2023-07-13T10:21:50;9.70;;;7.00;;
70106;SDS011;57473;37.508;15.080;2023-07-13T10:24:23;9.95;;;6.43;;
70106;SDS011;57473;37.508;15.080;2023-07-13T10:27:04;10.87;;;6.57;;
70106;SDS011;57473;37.508;15.080;2023-07-13T10:29:48;14.95;;;8.30;;
70106;SDS011;57473;37.508;15.080;2023-07-13T10:32:44;8.63;;;6.28;;
70106;SDS011;57473;37.508;15.080;2023-07-13T10:35:13;17.73;;;11.40;;
70106;SDS011;57473;37.508;15.080;2023-07-13T10:37:47;12.90;;;8.02;;
70106;SDS011;57473;37.508;15.080;2023-07-13T10:40:23;30.50;;;19.05;;
70106;SDS011;57473;37.508;15.080;2023-07-13T10:43:08;18.17;;;10.82;;
70106;SDS011;57473;37.508;15.080;2023-07-13T10:45:45;14.95;;;7.75;;
70106;SDS011;57473;37.508;15.080;2023-07-13T10:48:16;8.73;;;6.10;;
70106;SDS011;57473;37.508;15.080;2023-07-13T10:50:45;12.68;;;6.38;;
70106;SDS011;57473;37.508;15.080;2023-07-13T10:53:28;10.52;;;5.78;;
70106;SDS011;57473;37.508;15.080;2023-07-13T10:56:04;11.77;;;6.93;;
70106;SDS011;57473;37.508;15.080;2023-07-13T10:58:36;9.35;;;6.35;;
70106;SDS011;57473;37.508;15.080;2023-07-13T11:01:09;8.10;;;5.75;;
70106;SDS011;57473;37.508;15.080;2023-07-13T11:06:12;12.38;;;6.10;;
70106;SDS011;57473;37.508;15.080;2023-07-13T11:14:03;9.27;;;6.13;;
70106;SDS011;57473;37.508;15.080;2023-07-13T11:16:44;11.05;;;5.78;;
70106;SDS011;57473;37.508;15.080;2023-07-13T11:22:09;10.93;;;6.13;;
70106;SDS011;57473;37.508;15.080;2023-07-13T11:24:52;8.82;;;5.88;;
70106;SDS011;57473;37.508;15.080;2023-07-13T11:27:35;8.60;;;6.22;;
70106;SDS011;57473;37.508;15.080;2023-07-13T11:32:51;8.73;;;5.97;;
70106;SDS011;57473;37.508;15.080;2023-07-13T11:35:35;11.82;;;6.18;;
70106;SDS011;57473;37.508;15.080;2023-07-13T11:38:21;13.57;;;6.20;;
70106;SDS011;57473;37.508;15.080;2023-07-13T11:40:55;9.38;;;6.22;;
70106;SDS011;57473;37.508;15.080;2023-07-13T11:45:52;7.40;;;5.53;;
70106;SDS011;57473;37.508;15.080;2023-07-13T11:48:24;9.20;;;5.40;;
70106;SDS011;57473;37.508;15.080;2023-07-13T11:51:16;9.57;;;5.30;;
70106;SDS011;57473;37.508;15.080;2023-07-13T11:53:48;10.40;;;7.32;;
70106;SDS011;57473;37.508;15.080;2023-07-13T11:56:17;6.03;;;5.20;;
70106;SDS011;57473;37.508;15.080;2023-07-13T11:58:48;9.05;;;5.47;;
70106;SDS011;57473;37.508;15.080;2023-07-13T12:01:21;9.40;;;5.07;;
70106;SDS011;57473;37.508;15.080;2023-07-13T12:03:51;7.43;;;5.10;;
70106;SDS011;57473;37.508;15.080;2023-07-13T12:06:25;11.05;;;5.32;;
70106;SDS011;57473;37.508;15.080;2023-07-13T12:09:35;7.93;;;5.55;;
70106;SDS011;57473;37.508;15.080;2023-07-13T12:12:09;9.52;;;5.40;;
70106;SDS011;57473;37.508;15.080;2023-07-13T12:15:37;7.85;;;5.15;;
70106;SDS011;57473;37.508;15.080;2023-07-13T12:18:23;10.13;;;4.55;;
70106;SDS011;57473;37.508;15.080;2023-07-13T12:21:19;7.75;;;5.63;;
70106;SDS011;57473;37.508;15.080;2023-07-13T12:24:38;10.63;;;5.70;;
70106;SDS011;57473;37.508;15.080;2023-07-13T12:27:26;7.60;;;4.50;;
70106;SDS011;57473;37.508;15.080;2023-07-13T12:33:11;9.82;;;5.15;;
70106;SDS011;57473;37.508;15.080;2023-07-13T12:35:46;8.55;;;4.80;;
70106;SDS011;57473;37.508;15.080;2023-07-13T12:38:16;10.43;;;5.22;;
70106;SDS011;57473;37.508;15.080;2023-07-13T12:40:49;8.70;;;4.85;;
70106;SDS011;57473;37.508;15.080;2023-07-13T12:43:19;7.35;;;4.72;;
70106;SDS011;57473;37.508;15.080;2023-07-13T12:45:57;6.97;;;4.22;;
70106;SDS011;57473;37.508;15.080;2023-07-13T12:48:37;5.80;;;4.18;;
70106;SDS011;57473;37.508;15.080;2023-07-13T12:51:26;9.60;;;7.03;;
70106;SDS011;57473;37.508;15.080;2023-07-13T12:54:05;8.68;;;4.40;;
70106;SDS011;57473;37.508;15.080;2023-07-13T12:56:45;7.53;;;4.38;;
70106;SDS011;57473;37.508;15.080;2023-07-13T12:59:20;9.77;;;4.25;;
70106;SDS011;57473;37.508;15.080;2023-07-13T13:01:49;8.68;;;5.20;;
70106;SDS011;57473;37.508;15.080;2023-07-13T13:04:17;7.88;;;4.65;;
70106;SDS011;57473;37.508;15.080;2023-07-13T13:06:49;9.07;;;4.60;;
70106;SDS011;57473;37.508;15.080;2023-07-13T13:09:28;6.80;;;4.43;;
70106;SDS011;57473;37.508;15.080;2023-07-13T13:11:55;7.13;;;4.93;;
70106;SDS011;57473;37.508;15.080;2023-07-13T13:14:23;7.43;;;4.07;;
70106;SDS011;57473;37.508;15.080;2023-07-13T13:16:50;8.38;;;4.45;;
70106;SDS011;57473;37.508;15.080;2023-07-13T13:19:27;8.63;;;4.38;;
70106;SDS011;57473;37.508;15.080;2023-07-13T13:21:55;7.25;;;4.13;;
70106;SDS011;57473;37.508;15.080;2023-07-13T13:24:24;7.65;;;3.85;;
70106;SDS011;57473;37.508;15.080;2023-07-13T13:29:24;7.00;;;3.90;;
70106;SDS011;57473;37.508;15.080;2023-07-13T13:31:54;6.72;;;4.10;;
70106;SDS011;57473;37.508;15.080;2023-07-13T13:34:25;11.77;;;4.18;;
70106;SDS011;57473;37.508;15.080;2023-07-13T13:36:53;8.65;;;4.10;;
70106;SDS011;57473;37.508;15.080;2023-07-13T13:42:01;8.43;;;4.20;;
70106;SDS011;57473;37.508;15.080;2023-07-13T13:44:32;7.00;;;4.07;;
70106;SDS011;57473;37.508;15.080;2023-07-13T13:47:03;12.40;;;4.43;;
70106;SDS011;57473;37.508;15.080;2023-07-13T13:49:41;11.45;;;4.47;;
70106;SDS011;57473;37.508;15.080;2023-07-13T13:52:08;5.32;;;3.60;;
70106;SDS011;57473;37.508;15.080;2023-07-13T13:54:37;9.55;;;3.70;;
70106;SDS011;57473;37.508;15.080;2023-07-13T13:57:12;8.05;;;4.07;;
70106;SDS011;57473;37.508;15.080;2023-07-13T14:00:11;10.23;;;3.60;;
70106;SDS011;57473;37.508;15.080;2023-07-13T14:02:47;5.40;;;3.30;;
70106;SDS011;57473;37.508;15.080;2023-07-13T14:05:21;6.70;;;4.00;;
70106;SDS011;57473;37.508;15.080;2023-07-13T14:07:54;6.70;;;4.35;;
70106;SDS011;57473;37.508;15.080;2023-07-13T14:10:30;8.30;;;3.80;;
70106;SDS011;57473;37.508;15.080;2023-07-13T14:13:19;6.75;;;4.03;;
70106;SDS011;57473;37.508;15.080;2023-07-13T14:15:53;5.50;;;3.53;;
70106;SDS011;57473;37.508;15.080;2023-07-13T14:18:34;8.88;;;4.07;;
70106;SDS011;57473;37.508;15.080;2023-07-13T14:21:17;7.10;;;4.00;;
70106;SDS011;57473;37.508;15.080;2023-07-13T14:23:53;7.18;;;4.15;;
70106;SDS011;57473;37.508;15.080;2023-07-13T14:28:55;14.40;;;12.90;;
70106;SDS011;57473;37.508;15.080;2023-07-13T14:31:28;9.00;;;5.18;;
70106;SDS011;57473;37.508;15.080;2023-07-13T14:34:10;5.82;;;4.00;;
70106;SDS011;57473;37.508;15.080;2023-07-13T14:36:42;5.90;;;4.10;;
70106;SDS011;57473;37.508;15.080;2023-07-13T14:39:22;5.43;;;4.07;;
70106;SDS011;57473;37.508;15.080;2023-07-13T14:41:54;6.88;;;3.97;;
70106;SDS011;57473;37.508;15.080;2023-07-13T14:44:39;7.95;;;4.35;;
70106;SDS011;57473;37.508;15.080;2023-07-13T14:47:09;6.40;;;4.22;;
70106;SDS011;57473;37.508;15.080;2023-07-13T14:49:42;9.63;;;6.38;;
70106;SDS011;57473;37.508;15.080;2023-07-13T14:52:17;8.23;;;5.53;;
70106;SDS011;57473;37.508;15.080;2023-07-13T14:54:59;9.10;;;4.80;;
70106;SDS011;57473;37.508;15.080;2023-07-13T14:57:27;7.80;;;4.00;;
70106;SDS011;57473;37.508;15.080;2023-07-13T14:59:57;6.45;;;4.32;;
70106;SDS011;57473;37.508;15.080;2023-07-13T15:02:34;9.00;;;4.43;;
70106;SDS011;57473;37.508;15.080;2023-07-13T15:05:21;8.87;;;4.03;;
70106;SDS011;57473;37.508;15.080;2023-07-13T15:07:59;7.25;;;4.10;;
70106;SDS011;57473;37.508;15.080;2023-07-13T15:10:32;13.27;;;7.25;;
70106;SDS011;57473;37.508;15.080;2023-07-13T15:13:18;7.03;;;4.20;;
70106;SDS011;57473;37.508;15.080;2023-07-13T15:15:47;9.85;;;5.00;;
70106;SDS011;57473;37.508;15.080;2023-07-13T15:18:18;5.15;;;3.67;;
70106;SDS011;57473;37.508;15.080;2023-07-13T15:20:49;7.78;;;3.80;;
70106;SDS011;57473;37.508;15.080;2023-07-13T15:23:20;7.78;;;3.70;;
70106;SDS011;57473;37.508;15.080;2023-07-13T15:25:49;9.55;;;4.40;;
70106;SDS011;57473;37.508;15.080;2023-07-13T15:28:16;6.13;;;4.10;;
70106;SDS011;57473;37.508;15.080;2023-07-13T15:30:45;10.85;;;4.70;;
70106;SDS011;57473;37.508;15.080;2023-07-13T15:33:22;9.05;;;5.10;;
70106;SDS011;57473;37.508;15.080;2023-07-13T15:35:54;6.18;;;4.22;;
70106;SDS011;57473;37.508;15.080;2023-07-13T15:38:27;6.88;;;4.00;;
70106;SDS011;57473;37.508;15.080;2023-07-13T15:40:56;5.45;;;3.65;;
70106;SDS011;57473;37.508;15.080;2023-07-13T15:43:25;10.38;;;4.65;;
70106;SDS011;57473;37.508;15.080;2023-07-13T15:45:53;7.57;;;5.60;;
70106;SDS011;57473;37.508;15.080;2023-07-13T15:48:21;5.45;;;3.63;;
70106;SDS011;57473;37.508;15.080;2023-07-13T15:50:51;8.45;;;3.75;;
70106;SDS011;57473;37.508;15.080;2023-07-13T15:53:30;6.80;;;3.60;;